sensor_id;sensor_type;location;lat;lon;timestamp;P1;durP1;ratioP1;P2;durP2;ratioP2
20754;SDS011;26385;48.470;7.938;2022-10-16T00:01:21;4.35;;;1.80;;
20754;SDS011;26385;48.470;7.938;2022-10-16T00:03:48;7.55;;;1.92;;
20754;SDS011;26385;48.470;7.938;2022-10-16T00:06:14;5.75;;;1.83;;
20754;SDS011;26385;48.470;7.938;2022-10-16T00:08:41;4.32;;;1.85;;
20754;SDS011;26385;48.470;7.938;2022-10-16T00:11:11;6.03;;;1.60;;
20754;SDS011;26385;48.470;7.938;2022-10-16T00:13:43;8.45;;;1.67;;
20754;SDS011;26385;48.470;7.938;2022-10-16T00:16:10;3.47;;;1.67;;
20754;SDS011;26385;48.470;7.938;2022-10-16T00:18:37;6.05;;;1.90;;
20754;SDS011;26385;48.470;7.938;2022-10-16T00:21:07;5.57;;;1.67;;
20754;SDS011;26385;48.470;7.938;2022-10-16T00:23:54;4.82;;;1.70;;
20754;SDS011;26385;48.470;7.938;2022-10-16T00:26:24;3.50;;;1.52;;
20754;SDS011;26385;48.470;7.938;2022-10-16T00:28:50;6.47;;;1.98;;
20754;SDS011;26385;48.470;7.938;2022-10-16T00:31:17;6.68;;;1.70;;
20754;SDS011;26385;48.470;7.938;2022-10-16T00:33:44;10.18;;;3.00;;
20754;SDS011;26385;48.470;7.938;2022-10-16T00:36:11;4.00;;;1.70;;
20754;SDS011;26385;48.470;7.938;2022-10-16T00:38:39;2.92;;;1.77;;
20754;SDS011;26385;48.470;7.938;2022-10-16T00:41:05;5.97;;;1.85;;
20754;SDS011;26385;48.470;7.938;2022-10-16T00:43:32;10.73;;;2.13;;
20754;SDS011;26385;48.470;7.938;2022-10-16T00:46:01;4.00;;;1.70;;
20754;SDS011;26385;48.470;7.938;2022-10-16T00:48:28;4.57;;;1.73;;
20754;SDS011;26385;48.470;7.938;2022-10-16T00:50:54;9.75;;;1.80;;
20754;SDS011;26385;48.470;7.938;2022-10-16T00:53:19;5.22;;;2.10;;
20754;SDS011;26385;48.470;7.938;2022-10-16T00:55:45;8.02;;;1.70;;
20754;SDS011;26385;48.470;7.938;2022-10-16T00:58:10;2.75;;;1.50;;
20754;SDS011;26385;48.470;7.938;2022-10-16T01:00:36;5.55;;;1.63;;
20754;SDS011;26385;48.470;7.938;2022-10-16T01:03:02;6.43;;;1.90;;
20754;SDS011;26385;48.470;7.938;2022-10-16T01:05:33;6.80;;;1.80;;
20754;SDS011;26385;48.470;7.938;2022-10-16T01:08:12;4.30;;;2.08;;
20754;SDS011;26385;48.470;7.938;2022-10-16T01:10:55;6.47;;;2.08;;
20754;SDS011;26385;48.470;7.938;2022-10-16T01:13:25;8.18;;;1.95;;
20754;SDS011;26385;48.470;7.938;2022-10-16T01:15:58;4.93;;;1.80;;
20754;SDS011;26385;48.470;7.938;2022-10-16T01:18:35;3.08;;;1.67;;
20754;SDS011;26385;48.470;7.938;2022-10-16T01:21:08;10.15;;;1.80;;
20754;SDS011;26385;48.470;7.938;2022-10-16T01:29:19;4.22;;;1.67;;
20754;SDS011;26385;48.470;7.938;2022-10-16T01:31:53;3.88;;;1.67;;
20754;SDS011;26385;48.470;7.938;2022-10-16T01:34:25;5.68;;;1.80;;
20754;SDS011;26385;48.470;7.938;2022-10-16T01:37:09;4.68;;;1.75;;
20754;SDS011;26385;48.470;7.938;2022-10-16T01:39:37;6.18;;;1.80;;
20754;SDS011;26385;48.470;7.938;2022-10-16T01:42:07;3.10;;;1.65;;
20754;SDS011;26385;48.470;7.938;2022-10-16T01:44:36;4.03;;;1.60;;
20754;SDS011;26385;48.470;7.938;2022-10-16T01:47:03;6.53;;;1.73;;
20754;SDS011;26385;48.470;7.938;2022-10-16T01:49:31;7.10;;;1.58;;
20754;SDS011;26385;48.470;7.938;2022-10-16T01:52:00;5.03;;;1.70;;
20754;SDS011;26385;48.470;7.938;2022-10-16T01:54:30;1.60;;;1.45;;
20754;SDS011;26385;48.470;7.938;2022-10-16T01:56:58;3.85;;;1.90;;
20754;SDS011;26385;48.470;7.938;2022-10-16T01:59:25;9.27;;;1.60;;
20754;SDS011;26385;48.470;7.938;2022-10-16T02:01:55;4.53;;;1.80;;
20754;SDS011;26385;48.470;7.938;2022-10-16T02:04:34;7.25;;;1.90;;
20754;SDS011;26385;48.470;7.938;2022-10-16T02:07:03;3.22;;;1.88;;
20754;SDS011;26385;48.470;7.938;2022-10-16T02:09:30;4.25;;;1.80;;
20754;SDS011;26385;48.470;7.938;2022-10-16T02:11:57;3.10;;;1.65;;
20754;SDS011;26385;48.470;7.938;2022-10-16T02:14:39;2.97;;;1.60;;
20754;SDS011;26385;48.470;7.938;2022-10-16T02:17:12;6.57;;;1.80;;
20754;SDS011;26385;48.470;7.938;2022-10-16T02:19:39;3.28;;;1.70;;
20754;SDS011;26385;48.470;7.938;2022-10-16T02:22:07;5.00;;;1.60;;
20754;SDS011;26385;48.470;7.938;2022-10-16T02:24:54;6.63;;;1.70;;
20754;SDS011;26385;48.470;7.938;2022-10-16T02:27:32;10.30;;;1.70;;
20754;SDS011;26385;48.470;7.938;2022-10-16T02:30:07;7.50;;;1.75;;
20754;SDS011;26385;48.470;7.938;2022-10-16T02:32:44;3.50;;;1.75;;
20754;SDS011;26385;48.470;7.938;2022-10-16T02:35:13;4.53;;;1.60;;
20754;SDS011;26385;48.470;7.938;2022-10-16T02:37:40;4.80;;;1.70;;
20754;SDS011;26385;48.470;7.938;2022-10-16T02:40:06;5.63;;;1.83;;
20754;SDS011;26385;48.470;7.938;2022-10-16T02:42:34;3.38;;;1.67;;
20754;SDS011;26385;48.470;7.938;2022-10-16T02:45:00;5.28;;;1.60;;
20754;SDS011;26385;48.470;7.938;2022-10-16T02:47:26;3.88;;;1.63;;
20754;SDS011;26385;48.470;7.938;2022-10-16T02:49:51;4.15;;;1.60;;
20754;SDS011;26385;48.470;7.938;2022-10-16T02:52:17;4.57;;;1.60;;
20754;SDS011;26385;48.470;7.938;2022-10-16T02:54:43;9.18;;;1.80;;
20754;SDS011;26385;48.470;7.938;2022-10-16T02:57:08;5.13;;;1.67;;
20754;SDS011;26385;48.470;7.938;2022-10-16T02:59:33;3.80;;;1.55;;
20754;SDS011;26385;48.470;7.938;2022-10-16T03:01:58;8.20;;;1.80;;
20754;SDS011;26385;48.470;7.938;2022-10-16T03:04:24;8.73;;;2.00;;
20754;SDS011;26385;48.470;7.938;2022-10-16T03:06:49;3.13;;;1.60;;
20754;SDS011;26385;48.470;7.938;2022-10-16T03:09:14;6.88;;;1.60;;
20754;SDS011;26385;48.470;7.938;2022-10-16T03:11:40;4.53;;;1.60;;
20754;SDS011;26385;48.470;7.938;2022-10-16T03:14:05;4.78;;;1.60;;
20754;SDS011;26385;48.470;7.938;2022-10-16T03:16:30;6.25;;;1.48;;
20754;SDS011;26385;48.470;7.938;2022-10-16T03:18:55;6.20;;;1.60;;
20754;SDS011;26385;48.470;7.938;2022-10-16T03:21:21;2.38;;;1.40;;
20754;SDS011;26385;48.470;7.938;2022-10-16T03:23:46;6.57;;;1.70;;
20754;SDS011;26385;48.470;7.938;2022-10-16T03:26:11;5.55;;;1.75;;
20754;SDS011;26385;48.470;7.938;2022-10-16T03:28:37;6.55;;;1.80;;
20754;SDS011;26385;48.470;7.938;2022-10-16T03:31:02;5.75;;;1.75;;
20754;SDS011;26385;48.470;7.938;2022-10-16T03:33:27;4.00;;;1.50;;
20754;SDS011;26385;48.470;7.938;2022-10-16T03:35:53;5.47;;;1.63;;
20754;SDS011;26385;48.470;7.938;2022-10-16T03:38:19;4.68;;;1.50;;
20754;SDS011;26385;48.470;7.938;2022-10-16T03:40:44;9.93;;;1.73;;
20754;SDS011;26385;48.470;7.938;2022-10-16T03:43:10;4.35;;;1.65;;
20754;SDS011;26385;48.470;7.938;2022-10-16T03:45:35;5.28;;;1.50;;
20754;SDS011;26385;48.470;7.938;2022-10-16T03:48:00;5.45;;;1.45;;
20754;SDS011;26385;48.470;7.938;2022-10-16T03:50:27;5.78;;;1.75;;
20754;SDS011;26385;48.470;7.938;2022-10-16T03:52:52;3.80;;;1.50;;
20754;SDS011;26385;48.470;7.938;2022-10-16T03:55:18;3.00;;;1.48;;
20754;SDS011;26385;48.470;7.938;2022-10-16T03:57:43;5.88;;;1.60;;
20754;SDS011;26385;48.470;7.938;2022-10-16T04:00:08;5.10;;;1.50;;
20754;SDS011;26385;48.470;7.938;2022-10-16T04:02:34;9.98;;;2.05;;
20754;SDS011;26385;48.470;7.938;2022-10-16T04:05:00;4.93;;;1.70;;
20754;SDS011;26385;48.470;7.938;2022-10-16T04:07:25;3.40;;;2.05;;
20754;SDS011;26385;48.470;7.938;2022-10-16T04:09:50;16.67;;;1.95;;
20754;SDS011;26385;48.470;7.938;2022-10-16T04:12:17;6.30;;;1.55;;
20754;SDS011;26385;48.470;7.938;2022-10-16T04:14:42;7.65;;;1.70;;
20754;SDS011;26385;48.470;7.938;2022-10-16T04:17:07;6.40;;;1.42;;
20754;SDS011;26385;48.470;7.938;2022-10-16T04:19:33;5.20;;;1.58;;
20754;SDS011;26385;48.470;7.938;2022-10-16T04:21:58;4.00;;;1.48;;
20754;SDS011;26385;48.470;7.938;2022-10-16T04:24:23;12.15;;;1.70;;
20754;SDS011;26385;48.470;7.938;2022-10-16T04:26:48;1.60;;;1.50;;
20754;SDS011;26385;48.470;7.938;2022-10-16T04:29:14;4.65;;;1.50;;
20754;SDS011;26385;48.470;7.938;2022-10-16T04:31:39;5.22;;;1.42;;
20754;SDS011;26385;48.470;7.938;2022-10-16T04:34:04;4.00;;;1.60;;
20754;SDS011;26385;48.470;7.938;2022-10-16T04:36:30;1.85;;;1.40;;
20754;SDS011;26385;48.470;7.938;2022-10-16T04:38:55;3.13;;;1.42;;
20754;SDS011;26385;48.470;7.938;2022-10-16T04:41:21;5.60;;;1.70;;
20754;SDS011;26385;48.470;7.938;2022-10-16T04:43:46;5.35;;;1.70;;
20754;SDS011;26385;48.470;7.938;2022-10-16T04:46:12;3.63;;;1.50;;
20754;SDS011;26385;48.470;7.938;2022-10-16T04:48:37;7.10;;;1.70;;
20754;SDS011;26385;48.470;7.938;2022-10-16T04:51:03;6.25;;;1.67;;
20754;SDS011;26385;48.470;7.938;2022-10-16T04:53:28;5.07;;;1.50;;
20754;SDS011;26385;48.470;7.938;2022-10-16T04:55:53;5.75;;;1.42;;
20754;SDS011;26385;48.470;7.938;2022-10-16T04:58:19;6.88;;;1.70;;
20754;SDS011;26385;48.470;7.938;2022-10-16T05:00:44;3.40;;;1.55;;
20754;SDS011;26385;48.470;7.938;2022-10-16T05:03:11;4.30;;;1.70;;
20754;SDS011;26385;48.470;7.938;2022-10-16T05:05:36;6.30;;;1.50;;
20754;SDS011;26385;48.470;7.938;2022-10-16T05:08:06;2.42;;;1.40;;
20754;SDS011;26385;48.470;7.938;2022-10-16T05:10:32;4.38;;;1.73;;
20754;SDS011;26385;48.470;7.938;2022-10-16T05:12:57;4.32;;;1.63;;
20754;SDS011;26385;48.470;7.938;2022-10-16T05:15:22;4.32;;;1.48;;
20754;SDS011;26385;48.470;7.938;2022-10-16T05:17:51;9.27;;;2.20;;
20754;SDS011;26385;48.470;7.938;2022-10-16T05:20:17;2.72;;;1.60;;
20754;SDS011;26385;48.470;7.938;2022-10-16T05:22:43;5.75;;;1.70;;
20754;SDS011;26385;48.470;7.938;2022-10-16T05:25:08;3.20;;;1.63;;
20754;SDS011;26385;48.470;7.938;2022-10-16T05:27:33;4.22;;;1.65;;
20754;SDS011;26385;48.470;7.938;2022-10-16T05:29:58;5.32;;;1.70;;
20754;SDS011;26385;48.470;7.938;2022-10-16T05:32:24;4.75;;;1.83;;
20754;SDS011;26385;48.470;7.938;2022-10-16T05:34:50;4.95;;;1.63;;
20754;SDS011;26385;48.470;7.938;2022-10-16T05:37:15;4.75;;;1.80;;
20754;SDS011;26385;48.470;7.938;2022-10-16T05:39:41;7.55;;;2.40;;
20754;SDS011;26385;48.470;7.938;2022-10-16T05:42:06;4.65;;;2.20;;
20754;SDS011;26385;48.470;7.938;2022-10-16T05:44:32;6.57;;;2.13;;
20754;SDS011;26385;48.470;7.938;2022-10-16T05:46:58;6.82;;;2.10;;
20754;SDS011;26385;48.470;7.938;2022-10-16T05:49:23;4.47;;;2.00;;
20754;SDS011;26385;48.470;7.938;2022-10-16T05:51:48;5.63;;;1.80;;
20754;SDS011;26385;48.470;7.938;2022-10-16T05:54:13;5.13;;;2.80;;
20754;SDS011;26385;48.470;7.938;2022-10-16T05:56:39;9.52;;;3.58;;
20754;SDS011;26385;48.470;7.938;2022-10-16T05:59:04;7.00;;;3.30;;
20754;SDS011;26385;48.470;7.938;2022-10-16T06:01:30;2.90;;;1.85;;
20754;SDS011;26385;48.470;7.938;2022-10-16T06:03:56;5.28;;;1.88;;
20754;SDS011;26385;48.470;7.938;2022-10-16T06:06:22;8.00;;;2.08;;
20754;SDS011;26385;48.470;7.938;2022-10-16T06:08:50;6.30;;;2.25;;
20754;SDS011;26385;48.470;7.938;2022-10-16T06:11:18;5.30;;;1.98;;
20754;SDS011;26385;48.470;7.938;2022-10-16T06:13:49;3.42;;;2.35;;
20754;SDS011;26385;48.470;7.938;2022-10-16T06:16:19;4.70;;;2.55;;
20754;SDS011;26385;48.470;7.938;2022-10-16T06:18:44;3.47;;;2.00;;
20754;SDS011;26385;48.470;7.938;2022-10-16T06:21:16;4.20;;;2.00;;
20754;SDS011;26385;48.470;7.938;2022-10-16T06:23:44;8.55;;;2.42;;
20754;SDS011;26385;48.470;7.938;2022-10-16T06:26:11;5.47;;;2.47;;
20754;SDS011;26385;48.470;7.938;2022-10-16T06:28:38;2.80;;;2.08;;
20754;SDS011;26385;48.470;7.938;2022-10-16T06:31:04;7.65;;;1.83;;
20754;SDS011;26385;48.470;7.938;2022-10-16T06:33:30;6.22;;;1.80;;
20754;SDS011;26385;48.470;7.938;2022-10-16T06:36:00;5.45;;;1.80;;
20754;SDS011;26385;48.470;7.938;2022-10-16T06:38:29;5.25;;;1.52;;
20754;SDS011;26385;48.470;7.938;2022-10-16T06:40:54;4.32;;;1.80;;
20754;SDS011;26385;48.470;7.938;2022-10-16T06:43:20;5.68;;;1.70;;
20754;SDS011;26385;48.470;7.938;2022-10-16T06:45:54;8.45;;;2.00;;
20754;SDS011;26385;48.470;7.938;2022-10-16T06:48:21;3.15;;;1.70;;
20754;SDS011;26385;48.470;7.938;2022-10-16T06:50:56;3.65;;;1.50;;
20754;SDS011;26385;48.470;7.938;2022-10-16T06:53:26;3.15;;;1.85;;
20754;SDS011;26385;48.470;7.938;2022-10-16T06:55:54;5.25;;;1.92;;
20754;SDS011;26385;48.470;7.938;2022-10-16T06:58:19;4.35;;;1.80;;
20754;SDS011;26385;48.470;7.938;2022-10-16T07:00:44;7.13;;;1.70;;
20754;SDS011;26385;48.470;7.938;2022-10-16T07:03:10;3.67;;;1.50;;
20754;SDS011;26385;48.470;7.938;2022-10-16T07:05:39;7.85;;;1.75;;
20754;SDS011;26385;48.470;7.938;2022-10-16T07:08:06;3.15;;;1.92;;
20754;SDS011;26385;48.470;7.938;2022-10-16T07:10:32;2.40;;;1.63;;
20754;SDS011;26385;48.470;7.938;2022-10-16T07:12:57;10.05;;;1.67;;
20754;SDS011;26385;48.470;7.938;2022-10-16T07:15:24;4.55;;;1.73;;
20754;SDS011;26385;48.470;7.938;2022-10-16T07:17:50;1.95;;;1.70;;
20754;SDS011;26385;48.470;7.938;2022-10-16T07:20:15;4.30;;;1.83;;
20754;SDS011;26385;48.470;7.938;2022-10-16T07:22:41;5.15;;;1.65;;
20754;SDS011;26385;48.470;7.938;2022-10-16T07:25:06;3.00;;;1.50;;
20754;SDS011;26385;48.470;7.938;2022-10-16T07:27:32;5.78;;;1.70;;
20754;SDS011;26385;48.470;7.938;2022-10-16T07:29:57;3.08;;;1.67;;
20754;SDS011;26385;48.470;7.938;2022-10-16T07:32:22;2.15;;;1.50;;
20754;SDS011;26385;48.470;7.938;2022-10-16T07:34:48;5.72;;;1.63;;
20754;SDS011;26385;48.470;7.938;2022-10-16T07:37:13;3.60;;;1.60;;
20754;SDS011;26385;48.470;7.938;2022-10-16T07:39:39;7.22;;;1.92;;
20754;SDS011;26385;48.470;7.938;2022-10-16T07:42:04;10.88;;;3.60;;
20754;SDS011;26385;48.470;7.938;2022-10-16T07:44:29;4.55;;;1.70;;
20754;SDS011;26385;48.470;7.938;2022-10-16T07:46:54;4.25;;;1.80;;
20754;SDS011;26385;48.470;7.938;2022-10-16T07:49:20;7.10;;;1.60;;
20754;SDS011;26385;48.470;7.938;2022-10-16T07:51:45;5.40;;;1.70;;
20754;SDS011;26385;48.470;7.938;2022-10-16T07:54:11;4.45;;;1.98;;
20754;SDS011;26385;48.470;7.938;2022-10-16T07:56:36;5.32;;;1.60;;
20754;SDS011;26385;48.470;7.938;2022-10-16T07:59:01;2.45;;;1.48;;
20754;SDS011;26385;48.470;7.938;2022-10-16T08:01:26;4.00;;;1.60;;
20754;SDS011;26385;48.470;7.938;2022-10-16T08:03:52;4.25;;;1.73;;
20754;SDS011;26385;48.470;7.938;2022-10-16T08:06:18;4.35;;;1.67;;
20754;SDS011;26385;48.470;7.938;2022-10-16T08:08:45;4.28;;;1.80;;
20754;SDS011;26385;48.470;7.938;2022-10-16T08:11:11;2.92;;;1.70;;
20754;SDS011;26385;48.470;7.938;2022-10-16T08:13:36;4.78;;;1.80;;
20754;SDS011;26385;48.470;7.938;2022-10-16T08:16:02;6.93;;;1.90;;
20754;SDS011;26385;48.470;7.938;2022-10-16T08:18:32;9.18;;;2.15;;
20754;SDS011;26385;48.470;7.938;2022-10-16T08:20:58;3.28;;;1.73;;
20754;SDS011;26385;48.470;7.938;2022-10-16T08:23:25;5.25;;;1.70;;
20754;SDS011;26385;48.470;7.938;2022-10-16T08:25:51;8.18;;;1.73;;
20754;SDS011;26385;48.470;7.938;2022-10-16T08:28:18;5.80;;;1.77;;
20754;SDS011;26385;48.470;7.938;2022-10-16T08:30:44;4.50;;;1.83;;
20754;SDS011;26385;48.470;7.938;2022-10-16T08:33:09;5.43;;;1.88;;
20754;SDS011;26385;48.470;7.938;2022-10-16T08:35:35;6.18;;;1.60;;
20754;SDS011;26385;48.470;7.938;2022-10-16T08:38:02;6.30;;;1.73;;
20754;SDS011;26385;48.470;7.938;2022-10-16T08:40:29;3.38;;;1.55;;
20754;SDS011;26385;48.470;7.938;2022-10-16T08:48:43;5.10;;;1.60;;
20754;SDS011;26385;48.470;7.938;2022-10-16T08:51:15;5.88;;;1.95;;
20754;SDS011;26385;48.470;7.938;2022-10-16T08:53:49;7.25;;;2.20;;
20754;SDS011;26385;48.470;7.938;2022-10-16T08:56:19;3.83;;;1.60;;
20754;SDS011;26385;48.470;7.938;2022-10-16T08:58:44;5.00;;;2.15;;
20754;SDS011;26385;48.470;7.938;2022-10-16T09:01:13;5.85;;;1.80;;
20754;SDS011;26385;48.470;7.938;2022-10-16T09:06:47;5.70;;;2.17;;
20754;SDS011;26385;48.470;7.938;2022-10-16T09:12:51;5.57;;;1.95;;
20754;SDS011;26385;48.470;7.938;2022-10-16T09:17:59;3.88;;;2.15;;
20754;SDS011;26385;48.470;7.938;2022-10-16T09:23:45;25.10;;;2.10;;
20754;SDS011;26385;48.470;7.938;2022-10-16T09:26:11;6.88;;;1.70;;
20754;SDS011;26385;48.470;7.938;2022-10-16T09:28:39;5.55;;;1.77;;
20754;SDS011;26385;48.470;7.938;2022-10-16T09:31:05;3.08;;;2.00;;
20754;SDS011;26385;48.470;7.938;2022-10-16T09:33:33;4.40;;;1.70;;
20754;SDS011;26385;48.470;7.938;2022-10-16T09:36:02;5.18;;;1.70;;
20754;SDS011;26385;48.470;7.938;2022-10-16T09:38:30;2.97;;;1.55;;
20754;SDS011;26385;48.470;7.938;2022-10-16T09:40:58;3.78;;;1.80;;
20754;SDS011;26385;48.470;7.938;2022-10-16T09:49:00;4.90;;;1.70;;
20754;SDS011;26385;48.470;7.938;2022-10-16T09:51:32;3.85;;;1.73;;
20754;SDS011;26385;48.470;7.938;2022-10-16T09:56:35;8.18;;;1.70;;
20754;SDS011;26385;48.470;7.938;2022-10-16T09:59:11;3.92;;;2.05;;
20754;SDS011;26385;48.470;7.938;2022-10-16T10:01:39;4.50;;;1.50;;
20754;SDS011;26385;48.470;7.938;2022-10-16T10:04:07;4.22;;;1.95;;
20754;SDS011;26385;48.470;7.938;2022-10-16T10:06:33;2.80;;;1.35;;
20754;SDS011;26385;48.470;7.938;2022-10-16T10:09:16;3.20;;;1.70;;
20754;SDS011;26385;48.470;7.938;2022-10-16T10:12:33;2.67;;;1.52;;
20754;SDS011;26385;48.470;7.938;2022-10-16T10:15:11;3.83;;;1.50;;
20754;SDS011;26385;48.470;7.938;2022-10-16T10:17:48;2.50;;;1.50;;
20754;SDS011;26385;48.470;7.938;2022-10-16T10:20:21;3.70;;;1.70;;
20754;SDS011;26385;48.470;7.938;2022-10-16T10:22:48;4.00;;;1.75;;
20754;SDS011;26385;48.470;7.938;2022-10-16T10:28:22;4.50;;;1.80;;
20754;SDS011;26385;48.470;7.938;2022-10-16T10:34:07;6.18;;;1.90;;
20754;SDS011;26385;48.470;7.938;2022-10-16T10:36:46;4.28;;;1.70;;
20754;SDS011;26385;48.470;7.938;2022-10-16T10:39:30;4.28;;;2.40;;
20754;SDS011;26385;48.470;7.938;2022-10-16T10:55:54;4.70;;;2.08;;
20754;SDS011;26385;48.470;7.938;2022-10-16T11:04:23;7.13;;;2.08;;
20754;SDS011;26385;48.470;7.938;2022-10-16T11:07:04;9.27;;;2.30;;
20754;SDS011;26385;48.470;7.938;2022-10-16T11:09:38;5.13;;;2.13;;
20754;SDS011;26385;48.470;7.938;2022-10-16T11:12:27;5.00;;;2.17;;
20754;SDS011;26385;48.470;7.938;2022-10-16T11:15:00;4.57;;;2.20;;
20754;SDS011;26385;48.470;7.938;2022-10-16T11:17:40;5.85;;;2.25;;
20754;SDS011;26385;48.470;7.938;2022-10-16T11:20:17;3.45;;;2.05;;
20754;SDS011;26385;48.470;7.938;2022-10-16T11:22:48;3.33;;;2.33;;
20754;SDS011;26385;48.470;7.938;2022-10-16T11:28:31;2.28;;;2.05;;
20754;SDS011;26385;48.470;7.938;2022-10-16T11:33:29;4.55;;;2.10;;
20754;SDS011;26385;48.470;7.938;2022-10-16T11:36:00;6.70;;;2.30;;
20754;SDS011;26385;48.470;7.938;2022-10-16T11:41:34;6.22;;;2.15;;
20754;SDS011;26385;48.470;7.938;2022-10-16T11:44:27;4.03;;;2.50;;
20754;SDS011;26385;48.470;7.938;2022-10-16T11:49:29;4.85;;;2.22;;
20754;SDS011;26385;48.470;7.938;2022-10-16T11:52:35;5.30;;;2.50;;
20754;SDS011;26385;48.470;7.938;2022-10-16T11:55:12;5.32;;;3.03;;
20754;SDS011;26385;48.470;7.938;2022-10-16T11:57:46;3.25;;;2.30;;
20754;SDS011;26385;48.470;7.938;2022-10-16T12:08:33;8.82;;;2.42;;
20754;SDS011;26385;48.470;7.938;2022-10-16T12:11:35;3.42;;;2.60;;
20754;SDS011;26385;48.470;7.938;2022-10-16T12:13:51;6.47;;;2.50;;
20754;SDS011;26385;48.470;7.938;2022-10-16T12:16:28;4.57;;;1.80;;
20754;SDS011;26385;48.470;7.938;2022-10-16T12:19:13;3.88;;;2.08;;
20754;SDS011;26385;48.470;7.938;2022-10-16T12:21:40;3.90;;;2.00;;
20754;SDS011;26385;48.470;7.938;2022-10-16T12:24:06;4.85;;;2.00;;
20754;SDS011;26385;48.470;7.938;2022-10-16T12:26:47;4.90;;;2.10;;
20754;SDS011;26385;48.470;7.938;2022-10-16T12:31:47;4.07;;;1.70;;
20754;SDS011;26385;48.470;7.938;2022-10-16T12:34:37;2.00;;;1.80;;
20754;SDS011;26385;48.470;7.938;2022-10-16T12:39:47;4.10;;;2.05;;
20754;SDS011;26385;48.470;7.938;2022-10-16T12:42:33;2.70;;;1.85;;
20754;SDS011;26385;48.470;7.938;2022-10-16T12:44:59;4.60;;;2.30;;
20754;SDS011;26385;48.470;7.938;2022-10-16T12:49:57;7.90;;;2.50;;
20754;SDS011;26385;48.470;7.938;2022-10-16T12:52:28;2.85;;;2.08;;
20754;SDS011;26385;48.470;7.938;2022-10-16T12:55:00;2.00;;;1.80;;
20754;SDS011;26385;48.470;7.938;2022-10-16T13:00:04;4.10;;;2.40;;
20754;SDS011;26385;48.470;7.938;2022-10-16T13:09:10;11.98;;;4.28;;
20754;SDS011;26385;48.470;7.938;2022-10-16T13:14:47;3.67;;;2.38;;
20754;SDS011;26385;48.470;7.938;2022-10-16T13:20:15;5.50;;;2.58;;
20754;SDS011;26385;48.470;7.938;2022-10-16T13:28:09;4.15;;;2.55;;
20754;SDS011;26385;48.470;7.938;2022-10-16T13:30:40;3.67;;;2.38;;
20754;SDS011;26385;48.470;7.938;2022-10-16T13:33:13;2.97;;;2.60;;
20754;SDS011;26385;48.470;7.938;2022-10-16T13:35:52;2.53;;;2.30;;
20754;SDS011;26385;48.470;7.938;2022-10-16T13:38:25;2.90;;;2.22;;
20754;SDS011;26385;48.470;7.938;2022-10-16T13:40:53;6.05;;;2.50;;
20754;SDS011;26385;48.470;7.938;2022-10-16T13:43:31;6.22;;;3.90;;
20754;SDS011;26385;48.470;7.938;2022-10-16T13:46:14;4.18;;;2.50;;
20754;SDS011;26385;48.470;7.938;2022-10-16T13:48:41;4.47;;;2.22;;
20754;SDS011;26385;48.470;7.938;2022-10-16T13:51:13;4.10;;;2.35;;
20754;SDS011;26385;48.470;7.938;2022-10-16T13:53:40;3.47;;;2.10;;
20754;SDS011;26385;48.470;7.938;2022-10-16T13:56:09;3.75;;;2.10;;
20754;SDS011;26385;48.470;7.938;2022-10-16T13:58:36;3.20;;;2.03;;
20754;SDS011;26385;48.470;7.938;2022-10-16T14:01:03;2.40;;;2.10;;
20754;SDS011;26385;48.470;7.938;2022-10-16T14:03:30;6.15;;;4.03;;
20754;SDS011;26385;48.470;7.938;2022-10-16T14:05:58;4.10;;;2.60;;
20754;SDS011;26385;48.470;7.938;2022-10-16T14:08:25;2.95;;;2.00;;
20754;SDS011;26385;48.470;7.938;2022-10-16T14:10:54;3.60;;;2.15;;
20754;SDS011;26385;48.470;7.938;2022-10-16T14:13:37;5.05;;;2.70;;
20754;SDS011;26385;48.470;7.938;2022-10-16T14:16:08;4.28;;;2.35;;
20754;SDS011;26385;48.470;7.938;2022-10-16T14:18:41;4.70;;;2.25;;
20754;SDS011;26385;48.470;7.938;2022-10-16T14:21:12;2.47;;;2.13;;
20754;SDS011;26385;48.470;7.938;2022-10-16T14:23:39;2.38;;;2.13;;
20754;SDS011;26385;48.470;7.938;2022-10-16T14:26:11;2.28;;;2.08;;
20754;SDS011;26385;48.470;7.938;2022-10-16T14:28:38;5.55;;;2.30;;
20754;SDS011;26385;48.470;7.938;2022-10-16T14:31:25;3.17;;;1.98;;
20754;SDS011;26385;48.470;7.938;2022-10-16T14:33:55;4.10;;;2.42;;
20754;SDS011;26385;48.470;7.938;2022-10-16T14:36:21;3.03;;;2.10;;
20754;SDS011;26385;48.470;7.938;2022-10-16T14:38:49;3.88;;;2.22;;
20754;SDS011;26385;48.470;7.938;2022-10-16T14:41:21;3.15;;;2.20;;
20754;SDS011;26385;48.470;7.938;2022-10-16T14:43:54;2.78;;;2.10;;
20754;SDS011;26385;48.470;7.938;2022-10-16T14:46:27;4.18;;;2.33;;
20754;SDS011;26385;48.470;7.938;2022-10-16T14:49:28;4.75;;;2.53;;
20754;SDS011;26385;48.470;7.938;2022-10-16T14:51:47;3.78;;;2.17;;
20754;SDS011;26385;48.470;7.938;2022-10-16T14:54:14;2.28;;;2.08;;
20754;SDS011;26385;48.470;7.938;2022-10-16T14:56:47;4.70;;;2.17;;
20754;SDS011;26385;48.470;7.938;2022-10-16T15:01:55;2.22;;;2.03;;
20754;SDS011;26385;48.470;7.938;2022-10-16T15:04:21;2.10;;;1.98;;
20754;SDS011;26385;48.470;7.938;2022-10-16T15:06:46;3.30;;;2.53;;
20754;SDS011;26385;48.470;7.938;2022-10-16T15:09:12;5.15;;;2.85;;
20754;SDS011;26385;48.470;7.938;2022-10-16T15:11:37;4.30;;;3.20;;
20754;SDS011;26385;48.470;7.938;2022-10-16T15:14:03;7.07;;;3.53;;
20754;SDS011;26385;48.470;7.938;2022-10-16T15:16:29;5.13;;;4.20;;
20754;SDS011;26385;48.470;7.938;2022-10-16T15:18:55;4.45;;;3.88;;
20754;SDS011;26385;48.470;7.938;2022-10-16T15:21:22;7.95;;;3.53;;
20754;SDS011;26385;48.470;7.938;2022-10-16T15:23:51;4.15;;;2.80;;
20754;SDS011;26385;48.470;7.938;2022-10-16T15:26:16;4.18;;;3.08;;
20754;SDS011;26385;48.470;7.938;2022-10-16T15:28:42;7.30;;;2.90;;
20754;SDS011;26385;48.470;7.938;2022-10-16T15:31:07;4.03;;;3.00;;
20754;SDS011;26385;48.470;7.938;2022-10-16T15:33:32;3.88;;;2.80;;
20754;SDS011;26385;48.470;7.938;2022-10-16T15:35:59;4.57;;;2.90;;
20754;SDS011;26385;48.470;7.938;2022-10-16T15:38:25;7.18;;;4.70;;
20754;SDS011;26385;48.470;7.938;2022-10-16T15:40:51;7.55;;;5.05;;
20754;SDS011;26385;48.470;7.938;2022-10-16T15:43:16;15.02;;;8.00;;
20754;SDS011;26385;48.470;7.938;2022-10-16T15:45:43;17.08;;;10.75;;
20754;SDS011;26385;48.470;7.938;2022-10-16T15:48:10;19.25;;;11.32;;
20754;SDS011;26385;48.470;7.938;2022-10-16T15:50:38;16.17;;;10.77;;
20754;SDS011;26385;48.470;7.938;2022-10-16T15:53:03;11.05;;;7.95;;
20754;SDS011;26385;48.470;7.938;2022-10-16T15:55:29;15.48;;;11.57;;
20754;SDS011;26385;48.470;7.938;2022-10-16T15:57:54;10.32;;;5.03;;
20754;SDS011;26385;48.470;7.938;2022-10-16T16:00:20;5.88;;;3.20;;
20754;SDS011;26385;48.470;7.938;2022-10-16T16:02:51;4.38;;;3.03;;
20754;SDS011;26385;48.470;7.938;2022-10-16T16:05:17;6.07;;;2.85;;
20754;SDS011;26385;48.470;7.938;2022-10-16T16:07:43;4.30;;;3.00;;
20754;SDS011;26385;48.470;7.938;2022-10-16T16:10:09;6.30;;;3.22;;
20754;SDS011;26385;48.470;7.938;2022-10-16T16:12:36;11.35;;;3.22;;
20754;SDS011;26385;48.470;7.938;2022-10-16T16:15:02;6.43;;;3.40;;
20754;SDS011;26385;48.470;7.938;2022-10-16T16:17:29;5.22;;;3.00;;
20754;SDS011;26385;48.470;7.938;2022-10-16T16:19:55;10.38;;;3.38;;
20754;SDS011;26385;48.470;7.938;2022-10-16T16:22:21;9.07;;;3.97;;
20754;SDS011;26385;48.470;7.938;2022-10-16T16:24:46;12.13;;;4.13;;
20754;SDS011;26385;48.470;7.938;2022-10-16T16:27:11;12.32;;;3.83;;
20754;SDS011;26385;48.470;7.938;2022-10-16T16:29:38;9.43;;;3.90;;
20754;SDS011;26385;48.470;7.938;2022-10-16T16:32:03;9.13;;;3.67;;
20754;SDS011;26385;48.470;7.938;2022-10-16T16:34:29;9.90;;;4.50;;
20754;SDS011;26385;48.470;7.938;2022-10-16T16:36:54;10.18;;;3.85;;
20754;SDS011;26385;48.470;7.938;2022-10-16T16:39:21;6.88;;;3.35;;
20754;SDS011;26385;48.470;7.938;2022-10-16T16:41:47;9.82;;;3.17;;
20754;SDS011;26385;48.470;7.938;2022-10-16T16:44:12;9.65;;;3.72;;